Time;durP1;ratioP1;P1;durP2;ratioP2;P2;SDS_P1;SDS_P2;PMS_P1;PMS_P2;Temp;Humidity;BMP_temperature;BMP_pressure;BME280_temperature;BME280_humidity;BME280_pressure;Samples;Min_cycle;Max_cycle;Signal;HPM_P1;HPM_P2
2022/09/25 00:01:25;;;;;;;10.03;8.03;;;;;;;7.22;100.00;100462.25;5016918;28;20313;-79
2022/09/25 00:03:52;;;;;;;14.20;8.20;;;;;;;7.27;100.00;100466.47;5018700;28;20254;-79
2022/09/25 00:06:21;;;;;;;9.90;7.33;;;;;;;7.24;100.00;100470.88;5003923;28;20207;-78
2022/09/25 00:08:48;;;;;;;10.63;7.83;;;;;;;7.21;100.00;100461.38;5018935;28;20183;-79
2022/09/25 00:11:20;;;;;;;13.40;8.60;;;;;;;7.17;100.00;100464.91;5013474;28;20220;-79
2022/09/25 00:13:47;;;;;;;10.23;7.90;;;;;;;7.14;100.00;100460.63;4997731;28;20678;-78
2022/09/25 00:16:16;;;;;;;11.37;8.53;;;;;;;7.17;100.00;100460.56;5005054;28;20236;-79
2022/09/25 00:21:29;;;;;;;9.17;7.70;;;;;;;7.15;100.00;100464.91;5015189;28;20235;-77
2022/09/25 00:23:59;;;;;;;12.53;8.80;;;;;;;7.15;100.00;100462.31;4998776;28;20258;-78
2022/09/25 00:26:26;;;;;;;10.70;7.80;;;;;;;7.13;100.00;100464.09;5008660;28;20290;-78
2022/09/25 00:28:53;;;;;;;10.70;8.90;;;;;;;7.12;100.00;100461.53;5013174;28;20209;-78
2022/09/25 00:31:23;;;;;;;11.57;8.87;;;;;;;7.10;100.00;100460.69;5011504;28;20722;-78
2022/09/25 00:33:50;;;;;;;13.23;8.80;;;;;;;7.11;100.00;100455.47;4991795;28;20212;-78
2022/09/25 00:36:17;;;;;;;11.40;8.63;;;;;;;7.05;100.00;100462.47;5012018;28;20565;-78
2022/09/25 00:38:47;;;;;;;11.93;9.70;;;;;;;7.01;100.00;100459.09;5013154;28;20313;-78
2022/09/25 00:41:16;;;;;;;10.37;8.40;;;;;;;7.04;100.00;100455.59;5007550;28;20221;-78
2022/09/25 00:43:44;;;;;;;8.93;7.73;;;;;;;6.91;100.00;100460.09;5011394;28;20197;-79
2022/09/25 00:46:15;;;;;;;11.10;7.00;;;;;;;6.79;100.00;100463.72;4992213;28;20229;-78
2022/09/25 00:48:48;;;;;;;10.83;7.53;;;;;;;6.74;100.00;100457.75;5007018;28;20203;-78
2022/09/25 00:51:19;;;;;;;9.27;7.67;;;;;;;6.74;100.00;100456.00;5011634;28;20278;-79
2022/09/25 00:53:48;;;;;;;8.57;7.00;;;;;;;6.78;100.00;100452.47;5013528;28;20207;-78
2022/09/25 00:56:16;;;;;;;10.03;7.60;;;;;;;6.75;100.00;100457.69;4997966;28;20287;-78
2022/09/25 00:58:42;;;;;;;9.97;8.00;;;;;;;6.69;100.00;100452.59;5005351;28;20269;-78
2022/09/25 01:01:09;;;;;;;9.30;7.17;;;;;;;6.65;100.00;100456.13;4996011;28;20229;-78
2022/09/25 01:03:37;;;;;;;8.23;6.73;;;;;;;6.69;100.00;100459.53;4992774;28;20658;-78
2022/09/25 01:06:03;;;;;;;8.90;7.47;;;;;;;6.68;100.00;100458.66;5009386;28;20283;-78
2022/09/25 01:08:32;;;;;;;9.53;7.53;;;;;;;6.62;100.00;100456.16;5013738;28;20204;-78
2022/09/25 01:11:00;;;;;;;9.17;7.30;;;;;;;6.58;100.00;100450.16;4999852;28;20226;-77
2022/09/25 01:13:28;;;;;;;9.00;6.80;;;;;;;6.55;100.00;100452.78;5012124;28;20194;-78
2022/09/25 01:15:59;;;;;;;9.87;7.80;;;;;;;6.52;100.00;100445.03;5014995;28;20201;-78
2022/09/25 01:18:40;;;;;;;15.47;8.33;;;;;;;6.50;100.00;100444.19;5011970;28;20259;-79
2022/09/25 01:21:20;;;;;;;8.03;6.77;;;;;;;6.52;100.00;100452.78;5009666;28;20259;-79
2022/09/25 01:24:23;;;;;;;9.07;7.27;;;;;;;6.59;100.00;100451.84;5010892;28;20272;-78
2022/09/25 01:27:15;;;;;;;9.80;7.53;;;;;;;6.54;100.00;100453.63;5009062;28;20287;-79
2022/09/25 01:29:49;;;;;;;11.13;7.37;;;;;;;6.55;100.00;100460.53;5006248;28;20193;-78
2022/09/25 01:32:29;;;;;;;9.27;7.97;;;;;;;6.47;100.00;100456.31;5008451;28;20193;-79
2022/09/25 01:37:58;;;;;;;10.77;8.50;;;;;;;6.43;100.00;100465.88;4993801;28;20581;-79
2022/09/25 01:40:32;;;;;;;11.80;8.43;;;;;;;6.41;100.00;100463.28;5009003;28;20220;-79
2022/09/25 01:43:07;;;;;;;11.17;9.03;;;;;;;6.42;100.00;100457.25;5006191;28;20658;-78
2022/09/25 01:45:40;;;;;;;9.43;8.40;;;;;;;6.50;100.00;100459.75;4992404;28;20294;-79
2022/09/25 01:48:11;;;;;;;11.17;8.27;;;;;;;6.52;100.00;100459.72;4993154;28;20290;-79
2022/09/25 01:50:43;;;;;;;10.87;8.17;;;;;;;6.48;100.00;100450.28;5007440;23;20231;-70
2022/09/25 01:53:14;;;;;;;12.13;8.90;;;;;;;6.40;100.00;100450.34;4981311;28;20209;-70
2022/09/25 01:55:45;;;;;;;12.90;9.27;;;;;;;6.46;100.00;100455.47;4984693;28;20206;-71
2022/09/25 01:58:19;;;;;;;10.47;8.60;;;;;;;6.40;100.00;100452.94;4985161;28;20706;-71
2022/09/25 02:00:54;;;;;;;10.30;8.47;;;;;;;6.39;100.00;100452.09;4984933;28;20907;-70
2022/09/25 02:03:25;;;;;;;10.73;8.70;;;;;;;6.30;100.00;100449.63;4987919;28;20199;-70
2022/09/25 02:05:56;;;;;;;10.20;8.87;;;;;;;6.24;100.00;100447.97;4986655;28;20194;-70
2022/09/25 02:08:27;;;;;;;12.17;8.60;;;;;;;6.14;100.00;100451.53;4987170;28;20205;-70
2022/09/25 02:10:57;;;;;;;11.27;8.40;;;;;;;6.14;100.00;100456.69;4985508;28;20221;-72
2022/09/25 02:13:28;;;;;;;12.83;8.90;;;;;;;6.16;100.00;100449.78;4986903;28;20212;-71
2022/09/25 02:15:59;;;;;;;11.37;8.60;;;;;;;6.14;100.00;100454.13;4984559;28;20201;-71
2022/09/25 02:21:20;;;;;;;10.03;7.73;;;;;;;6.09;100.00;100445.53;4986775;28;20225;-70
2022/09/25 02:23:53;;;;;;;9.57;7.87;;;;;;;6.16;100.00;100448.94;4987695;28;20206;-70
2022/09/25 02:26:25;;;;;;;8.60;6.90;;;;;;;6.16;100.00;100446.34;4986843;28;20672;-70
2022/09/25 02:28:53;;;;;;;10.37;6.97;;;;;;;6.10;100.00;100444.66;4986282;28;20236;-70
2022/09/25 02:31:22;;;;;;;9.57;7.87;;;;;;;6.13;100.00;100448.94;4987341;28;20221;-70
2022/09/25 02:33:50;;;;;;;9.60;8.17;;;;;;;6.17;100.00;100441.09;4987316;28;20197;-70
2022/09/25 02:36:18;;;;;;;9.20;7.10;;;;;;;6.17;100.00;100437.69;4986715;28;20213;-71
2022/09/25 02:38:47;;;;;;;8.50;7.47;;;;;;;6.04;100.00;100439.53;4984925;28;20236;-71
2022/09/25 02:41:21;;;;;;;9.47;7.43;;;;;;;6.07;100.00;100434.34;4987348;28;20620;-71
2022/09/25 02:44:02;;;;;;;9.37;7.80;;;;;;;6.07;100.00;100436.94;4987629;28;20589;-70
2022/09/25 02:46:38;;;;;;;9.37;6.97;;;;;;;6.03;100.00;100443.00;4986031;28;20229;-71
2022/09/25 02:49:16;;;;;;;11.93;8.33;;;;;;;6.12;100.00;100435.16;4985975;28;20216;-71
2022/09/25 02:51:52;;;;;;;9.30;7.53;;;;;;;6.13;100.00;100441.19;4982978;28;20236;-70
2022/09/25 02:54:25;;;;;;;11.97;7.80;;;;;;;6.06;100.00;100441.22;4986614;28;20197;-71
2022/09/25 02:56:56;;;;;;;9.57;7.43;;;;;;;6.04;100.00;100447.31;4986727;28;20206;-70
2022/09/25 02:59:28;;;;;;;8.60;7.40;;;;;;;6.10;100.00;100441.22;4987300;28;20197;-70
2022/09/25 03:01:57;;;;;;;8.23;6.77;;;;;;;6.06;100.00;100436.06;4982095;28;20229;-71
2022/09/25 03:04:28;;;;;;;8.67;7.37;;;;;;;6.12;100.00;100432.56;4981432;28;20613;-70
2022/09/25 03:06:55;;;;;;;10.10;8.23;;;;;;;6.15;100.00;100435.09;4987082;28;20205;-70
2022/09/25 03:09:22;;;;;;;10.00;7.83;;;;;;;6.18;100.00;100431.63;4985728;28;20246;-70
2022/09/25 03:11:49;;;;;;;9.50;7.53;;;;;;;6.17;100.00;100432.50;4987359;28;20253;-70
2022/09/25 03:14:15;;;;;;;9.87;7.93;;;;;;;6.20;100.00;100428.13;4987701;28;20201;-70
2022/09/25 03:16:46;;;;;;;12.30;7.83;;;;;;;6.11;100.00;100422.22;4984847;28;20235;-71
2022/09/25 03:19:14;;;;;;;9.73;7.53;;;;;;;6.16;100.00;100421.28;4985884;28;20209;-70
2022/09/25 03:21:41;;;;;;;10.10;8.10;;;;;;;6.10;100.00;100429.13;4985411;28;20312;-71
2022/09/25 03:24:07;;;;;;;12.80;8.87;;;;;;;6.14;100.00;100425.63;4985456;28;20701;-70
2022/09/25 03:26:34;;;;;;;9.83;8.33;;;;;;;6.13;100.00;100430.81;4986638;28;20212;-70
2022/09/25 03:29:01;;;;;;;8.47;7.40;;;;;;;6.17;100.00;100429.91;4987211;28;20228;-70
2022/09/25 03:31:28;;;;;;;8.77;7.53;;;;;;;6.06;100.00;100423.13;4984491;28;20231;-70
2022/09/25 03:33:55;;;;;;;9.80;7.27;;;;;;;6.01;100.00;100431.81;4984734;28;20216;-70
2022/09/25 03:36:26;;;;;;;9.13;7.43;;;;;;;5.97;100.00;100428.41;4986616;28;20201;-70
2022/09/25 03:38:56;;;;;;;9.83;7.77;;;;;;;6.02;100.00;100430.94;4986245;28;20420;-70
2022/09/25 03:41:23;;;;;;;9.20;6.90;;;;;;;5.98;100.00;100429.25;4986194;28;20275;-70
2022/09/25 03:43:51;;;;;;;8.63;7.27;;;;;;;5.91;100.00;100428.44;4986212;28;20593;-70
2022/09/25 03:46:19;;;;;;;9.53;7.60;;;;;;;5.85;100.00;100426.75;4985927;28;20293;-70
2022/09/25 03:48:45;;;;;;;9.63;7.27;;;;;;;5.81;100.00;100425.06;4989388;28;20220;-71
2022/09/25 03:51:12;;;;;;;8.73;7.73;;;;;;;5.81;100.00;100425.06;4989240;28;20272;-70
2022/09/25 03:53:40;;;;;;;9.37;7.80;;;;;;;5.78;100.00;100419.06;4989122;28;20209;-70
2022/09/25 03:56:09;;;;;;;8.40;7.23;;;;;;;5.84;100.00;100424.16;4985250;28;20209;-70
2022/09/25 03:58:36;;;;;;;8.47;6.73;;;;;;;5.88;100.00;100428.47;4989616;28;20200;-71
2022/09/25 04:01:03;;;;;;;9.67;8.03;;;;;;;5.75;100.00;100416.50;4989453;28;20848;-71
2022/09/25 04:03:31;;;;;;;9.97;7.67;;;;;;;5.72;100.00;100413.94;4987742;28;20197;-72
2022/09/25 04:06:03;;;;;;;9.77;7.93;;;;;;;5.69;100.00;100426.03;4989348;28;20228;-71
2022/09/25 04:08:30;;;;;;;8.53;7.40;;;;;;;5.69;100.00;100422.59;4988181;28;20220;-71
2022/09/25 04:10:59;;;;;;;8.33;6.77;;;;;;;5.74;100.00;100425.16;4989735;28;20792;-71
2022/09/25 04:13:28;;;;;;;9.60;7.43;;;;;;;5.71;100.00;100420.00;4990357;28;20202;-71
2022/09/25 04:15:55;;;;;;;10.40;8.37;;;;;;;5.72;100.00;100412.22;4988527;28;20205;-71
2022/09/25 04:18:22;;;;;;;9.93;6.87;;;;;;;5.59;100.00;100408.03;4985189;28;20209;-71
2022/09/25 04:20:48;;;;;;;10.87;7.67;;;;;;;5.49;100.00;100409.84;4987221;28;20237;-71
2022/09/25 04:23:14;;;;;;;9.30;7.27;;;;;;;5.48;100.00;100415.88;4989246;28;20269;-71
2022/09/25 04:25:41;;;;;;;8.50;6.70;;;;;;;5.42;100.00;100418.53;4989493;28;20205;-71
2022/09/25 04:28:09;;;;;;;9.63;7.37;;;;;;;5.44;100.00;100425.41;4989114;28;20201;-71
2022/09/25 04:30:35;;;;;;;10.13;6.90;;;;;;;5.39;100.00;100422.00;4989620;28;20210;-71
2022/09/25 04:35:46;;;;;;;12.83;6.90;;;;;;;5.26;100.00;100421.25;4988293;28;20205;-71
2022/09/25 04:38:12;;;;;;;7.90;6.13;;;;;;;5.28;100.00;100421.22;4988509;28;20690;-70
2022/09/25 04:40:39;;;;;;;8.53;6.50;;;;;;;5.24;100.00;100432.44;4986702;28;20204;-70
2022/09/25 04:43:07;;;;;;;7.47;6.33;;;;;;;5.30;100.00;100422.91;4983241;28;20205;-71
2022/09/25 04:45:35;;;;;;;7.43;6.63;;;;;;;5.26;100.00;100428.16;4989226;28;20205;-71
2022/09/25 04:48:02;;;;;;;7.97;6.27;;;;;;;5.27;100.00;100422.09;4988672;28;20712;-71
2022/09/25 04:50:29;;;;;;;6.70;5.77;;;;;;;5.23;100.00;100431.59;4989165;28;20222;-71
2022/09/25 04:53:02;;;;;;;7.03;6.07;;;;;;;5.26;100.00;100422.97;4987184;28;20225;-71
2022/09/25 04:55:29;;;;;;;7.90;6.13;;;;;;;5.22;100.00;100427.28;4989770;28;20292;-71
2022/09/25 04:57:57;;;;;;;9.17;7.00;;;;;;;5.09;100.00;100428.25;4987280;28;20206;-71
2022/09/25 05:00:25;;;;;;;7.67;6.00;;;;;;;5.13;100.00;100427.34;4988853;28;20213;-71
2022/09/25 05:02:52;;;;;;;8.10;6.33;;;;;;;5.06;100.00;100430.84;4986729;28;20208;-71
2022/09/25 05:05:19;;;;;;;7.43;6.30;;;;;;;5.18;100.00;100435.09;4988570;28;20202;-71
2022/09/25 05:07:52;;;;;;;7.27;5.87;;;;;;;5.13;100.00;100441.13;4987907;28;20288;-71
2022/09/25 05:10:19;;;;;;;8.10;6.47;;;;;;;5.19;100.00;100436.78;4987529;28;20542;-72
2022/09/25 05:12:46;;;;;;;6.67;6.00;;;;;;;5.30;100.00;100440.16;4988333;28;20724;-71
2022/09/25 05:15:13;;;;;;;8.73;7.23;;;;;;;5.26;100.00;100438.50;4986256;28;20205;-71
2022/09/25 05:17:39;;;;;;;7.80;6.27;;;;;;;5.29;100.00;100443.59;4983555;28;20210;-72
2022/09/25 05:20:08;;;;;;;7.00;5.73;;;;;;;5.49;100.00;100446.06;4988305;28;20211;-71
2022/09/25 05:22:34;;;;;;;9.90;6.60;;;;;;;5.60;100.00;100445.97;4988528;28;20217;-71
2022/09/25 05:25:01;;;;;;;8.97;6.97;;;;;;;5.49;100.00;100448.66;4988158;28;20209;-70
2022/09/25 05:27:27;;;;;;;7.57;6.13;;;;;;;5.61;100.00;100456.31;4988171;28;20268;-71
2022/09/25 05:29:53;;;;;;;7.80;6.67;;;;;;;5.72;100.00;100452.75;4987157;28;20229;-71
2022/09/25 05:32:20;;;;;;;8.10;7.30;;;;;;;5.79;100.00;100452.69;4988675;28;20482;-71
2022/09/25 05:34:46;;;;;;;8.60;6.70;;;;;;;5.88;100.00;100455.19;4987250;28;20224;-71
2022/09/25 05:37:14;;;;;;;9.37;8.07;;;;;;;6.02;100.00;100451.66;4986944;28;20285;-71
2022/09/25 05:39:41;;;;;;;11.17;8.93;;;;;;;5.98;100.00;100447.34;4984110;28;20664;-71
2022/09/25 05:42:07;;;;;;;9.63;7.43;;;;;;;6.04;100.00;100455.94;4988457;28;20217;-71
2022/09/25 05:44:34;;;;;;;12.37;9.00;;;;;;;6.07;100.00;100447.28;4989047;28;20590;-71
2022/09/25 05:47:00;;;;;;;12.53;10.00;;;;;;;6.10;100.00;100452.41;4986458;28;20194;-72
2022/09/25 05:49:27;;;;;;;12.63;9.33;;;;;;;6.25;100.00;100454.00;4981534;28;20268;-71
2022/09/25 05:51:53;;;;;;;11.70;9.20;;;;;;;6.27;100.00;100447.06;4985130;28;20324;-71
2022/09/25 05:54:21;;;;;;;12.63;9.03;;;;;;;6.37;100.00;100447.81;4988238;28;20205;-71
2022/09/25 05:56:47;;;;;;;13.37;10.53;;;;;;;6.38;100.00;100445.19;4987903;28;20209;-71
2022/09/25 05:59:14;;;;;;;12.60;10.53;;;;;;;6.40;100.00;100451.25;4985514;28;20202;-71
2022/09/25 06:01:40;;;;;;;14.93;10.80;;;;;;;6.63;100.00;100442.31;4988592;28;20217;-71
2022/09/25 06:04:07;;;;;;;12.07;9.93;;;;;;;6.73;100.00;100448.22;4986475;28;20209;-71
2022/09/25 06:06:33;;;;;;;13.13;9.97;;;;;;;6.83;100.00;100447.25;4988170;28;20218;-71
2022/09/25 06:09:00;;;;;;;15.10;11.47;;;;;;;6.86;100.00;100446.31;4984985;28;20221;-71
2022/09/25 06:11:30;;;;;;;16.20;11.57;;;;;;;6.93;100.00;100441.06;4987479;28;20226;-71
2022/09/25 06:13:57;;;;;;;13.73;10.83;;;;;;;7.12;100.00;100444.22;4986859;28;20193;-71
2022/09/25 06:16:23;;;;;;;17.70;11.87;;;;;;;7.16;100.00;100448.50;4986904;28;20287;-71
2022/09/25 06:18:51;;;;;;;13.63;9.87;;;;;;;7.20;100.00;100446.72;4985935;28;20195;-71
2022/09/25 06:21:17;;;;;;;13.10;10.83;;;;;;;7.30;100.00;100448.28;4986787;28;20230;-71
2022/09/25 06:23:45;;;;;;;13.60;10.40;;;;;;;7.36;100.00;100447.34;4986164;28;20211;-71
2022/09/25 06:26:12;;;;;;;15.67;10.60;;;;;;;7.41;100.00;100447.28;4986044;28;20211;-71
2022/09/25 06:28:40;;;;;;;11.97;10.20;;;;;;;7.43;100.00;100442.91;4985217;28;20206;-71
2022/09/25 06:31:07;;;;;;;13.37;10.57;;;;;;;7.49;100.00;100450.56;4986374;28;20229;-71
2022/09/25 06:33:34;;;;;;;13.33;10.67;;;;;;;7.64;100.00;100450.34;4986056;28;20210;-72
2022/09/25 06:36:00;;;;;;;15.10;11.20;;;;;;;7.64;100.00;100458.13;4984152;28;20204;-71
2022/09/25 06:38:27;;;;;;;15.27;11.00;;;;;;;7.64;100.00;100452.09;4983354;28;20429;-71
2022/09/25 06:40:54;;;;;;;15.53;11.13;;;;;;;7.70;100.00;100455.41;4984215;28;20398;-72
2022/09/25 06:43:20;;;;;;;15.37;11.07;;;;;;;7.82;100.00;100450.91;4982144;28;20201;-71
2022/09/25 06:45:49;;;;;;;13.60;9.70;;;;;;;7.96;100.00;100456.69;4985371;28;20213;-71
2022/09/25 06:48:17;;;;;;;12.67;10.47;;;;;;;8.00;100.00;100447.13;4984958;28;20417;-71
2022/09/25 06:50:45;;;;;;;13.07;9.73;;;;;;;8.06;100.00;100450.47;4983351;28;20324;-71
2022/09/25 06:53:12;;;;;;;15.63;11.57;;;;;;;8.18;100.00;100453.69;4984289;28;20204;-71
2022/09/25 06:55:39;;;;;;;12.80;10.53;;;;;;;8.25;100.00;100450.97;4982874;28;20220;-71
2022/09/25 06:58:10;;;;;;;17.33;10.93;;;;;;;8.36;100.00;100449.91;4984788;28;20206;-71
2022/09/25 07:00:36;;;;;;;14.07;11.13;;;;;;;8.45;100.00;100447.16;4981614;28;20561;-72
2022/09/25 07:05:48;;;;;;;16.33;12.13;;;;;;;8.58;100.00;100453.78;4982761;28;20288;-71
2022/09/25 07:08:19;;;;;;;15.83;11.60;;;;;;;8.69;100.00;100448.41;4985443;28;20229;-71
2022/09/25 07:10:50;;;;;;;14.13;10.93;;;;;;;8.77;100.00;100446.47;4983634;28;20234;-71
2022/09/25 07:13:16;;;;;;;13.63;10.70;;;;;;;8.81;100.00;100447.25;4983812;28;20205;-71
2022/09/25 07:15:43;;;;;;;14.07;10.50;;;;;;;8.86;100.00;100443.66;4982135;28;20206;-71
2022/09/25 07:18:11;;;;;;;12.47;9.50;;;;;;;9.03;100.00;100439.84;4985346;28;20285;-71
2022/09/25 07:20:37;;;;;;;14.00;10.33;;;;;;;9.13;100.00;100436.16;4986081;28;20199;-72
2022/09/25 07:23:04;;;;;;;14.50;10.57;;;;;;;9.16;100.00;100436.06;4987503;28;20203;-71
2022/09/25 07:25:31;;;;;;;12.13;10.20;;;;;;;9.29;100.00;100434.06;4987439;28;20768;-72
2022/09/25 07:27:58;;;;;;;12.47;9.57;;;;;;;9.42;100.00;100432.00;4987837;28;20269;-72
2022/09/25 07:30:27;;;;;;;13.83;10.03;;;;;;;9.48;100.00;100437.91;4989079;28;20238;-71
2022/09/25 07:32:53;;;;;;;14.07;9.33;;;;;;;9.59;100.00;100431.59;4987567;28;20214;-71
2022/09/25 07:35:22;;;;;;;12.43;8.77;;;;;;;9.71;100.00;100441.69;4988941;28;20310;-71
2022/09/25 07:37:48;;;;;;;12.33;9.00;;;;;;;9.76;100.00;100432.03;4988521;28;20845;-71
2022/09/25 07:40:15;;;;;;;12.27;9.00;;;;;;;9.95;100.00;100436.75;4989089;28;20201;-71
2022/09/25 07:42:42;;;;;;;34.37;16.87;;;;;;;10.09;100.00;100431.16;4989515;28;20224;-71
2022/09/25 07:45:09;;;;;;;26.80;13.90;;;;;;;10.17;100.00;100432.66;4998692;28;20583;-71
2022/09/25 07:47:36;;;;;;;14.97;9.77;;;;;;;10.27;100.00;100438.44;4986968;28;21272;-71
2022/09/25 07:50:02;;;;;;;11.60;8.57;;;;;;;10.39;100.00;100445.13;4988140;28;20374;-71
2022/09/25 07:52:30;;;;;;;11.97;8.07;;;;;;;10.46;100.00;100441.44;4988233;28;20228;-71
2022/09/25 07:54:57;;;;;;;11.83;8.30;;;;;;;10.57;100.00;100441.13;4989487;28;20227;-71
2022/09/25 07:57:23;;;;;;;12.77;7.90;;;;;;;10.66;100.00;100446.09;4986776;28;20201;-72
2022/09/25 07:59:50;;;;;;;9.67;7.53;;;;;;;10.77;100.00;100445.78;4985795;28;20284;-71
2022/09/25 08:02:16;;;;;;;10.50;7.67;;;;;;;10.81;100.00;100442.16;4983529;28;20291;-71
2022/09/25 08:04:42;;;;;;;9.93;6.90;;;;;;;10.88;100.00;100448.06;4986923;28;20198;-72
2022/09/25 08:07:09;;;;;;;8.40;6.60;;;;;;;10.98;100.00;100441.66;4987419;28;20205;-71
2022/09/25 08:09:37;;;;;;;13.40;7.10;;;;;;;11.01;100.00;100446.78;4988754;28;20227;-71
2022/09/25 08:12:04;;;;;;;8.80;7.03;;;;;;;11.02;100.00;100451.09;4988094;28;20584;-71
2022/09/25 08:14:31;;;;;;;10.00;8.03;;;;;;;11.06;100.00;100457.91;4985890;28;20197;-71
2022/09/25 08:16:58;;;;;;;8.43;7.53;;;;;;;11.07;100.00;100451.81;4986303;28;20638;-71
2022/09/25 08:19:26;;;;;;;12.50;6.97;;;;;;;11.09;100.00;100452.59;4985201;28;20432;-71
2022/09/25 08:21:52;;;;;;;13.23;8.37;;;;;;;11.10;100.00;100450.84;4985566;28;20217;-72
2022/09/25 08:24:18;;;;;;;8.90;7.03;;;;;;;11.13;100.00;100449.03;5001765;28;20201;-71
2022/09/25 08:26:47;;;;;;;10.27;6.73;;;;;;;11.15;100.00;100443.72;4988407;28;20573;-71
2022/09/25 08:29:13;;;;;;;11.13;6.90;;;;;;;11.15;100.00;100447.22;4985792;28;20205;-71
2022/09/25 08:31:40;;;;;;;10.07;6.20;;;;;;;11.14;100.00;100447.25;4985569;28;20236;-71
2022/09/25 08:34:07;;;;;;;7.57;6.30;;;;;;;11.16;100.00;100442.84;4986668;28;20212;-71
2022/09/25 08:36:34;;;;;;;7.80;6.53;;;;;;;11.17;100.00;100444.56;4987049;28;20326;-71
2022/09/25 08:39:00;;;;;;;8.73;6.83;;;;;;;11.17;100.00;100431.50;4988262;28;20216;-72
2022/09/25 08:41:29;;;;;;;9.40;6.70;;;;;;;11.23;100.00;100436.53;4988926;28;20217;-71
2022/09/25 08:44:03;;;;;;;8.50;7.40;;;;;;;11.33;100.00;100435.31;4987259;28;20211;-71
2022/09/25 08:49:25;;;;;;;8.00;7.17;;;;;;;11.52;100.00;100446.03;4987651;28;20197;-72
2022/09/25 08:51:56;;;;;;;8.60;7.20;;;;;;;11.58;100.00;100436.28;4988298;28;20261;-71
2022/09/25 08:54:24;;;;;;;11.70;8.03;;;;;;;11.67;100.00;100425.53;4985749;28;20730;-71
2022/09/25 08:56:52;;;;;;;9.17;7.50;;;;;;;11.72;100.00;100434.06;4985515;28;20201;-71
2022/09/25 08:59:25;;;;;;;8.87;7.47;;;;;;;11.82;100.00;100437.19;4984732;28;20209;-71
2022/09/25 09:01:55;;;;;;;10.03;7.70;;;;;;;11.91;100.00;100429.94;4986802;28;20217;-71
2022/09/25 09:04:26;;;;;;;9.47;7.70;;;;;;;12.02;100.00;100426.09;4986842;28;20208;-71
2022/09/25 09:06:57;;;;;;;10.80;8.17;;;;;;;12.13;100.00;100422.19;4986419;28;20220;-71
2022/09/25 09:09:29;;;;;;;9.40;7.43;;;;;;;12.26;100.00;100426.97;4985575;28;20235;-72
2022/09/25 09:12:02;;;;;;;13.00;8.03;;;;;;;12.20;100.00;100425.44;4986650;28;20584;-71
2022/09/25 09:14:36;;;;;;;10.53;7.93;;;;;;;12.35;100.00;100428.41;4986586;28;20201;-70
2022/09/25 09:17:06;;;;;;;11.07;8.00;;;;;;;12.43;100.00;100414.13;4987018;28;20688;-69
2022/09/25 09:19:33;;;;;;;9.77;8.07;;;;;;;12.52;100.00;100417.31;4985803;28;20205;-68
2022/09/25 09:22:06;;;;;;;9.60;7.83;;;;;;;12.63;100.00;100416.03;4987508;28;20582;-68
2022/09/25 09:24:45;;;;;;;10.23;8.17;;;;;;;12.75;100.00;100413.84;4988036;28;20194;-69
2022/09/25 09:27:25;;;;;;;10.50;8.50;;;;;;;12.78;100.00;100411.09;4987078;28;20527;-68
2022/09/25 09:30:03;;;;;;;12.47;7.53;;;;;;;12.89;100.00;100411.53;4985710;28;20205;-68
2022/09/25 09:32:41;;;;;;;11.73;8.33;;;;;;;13.00;100.00;100409.38;4986561;28;20224;-68
2022/09/25 09:35:21;;;;;;;11.63;8.20;;;;;;;13.05;100.00;100407.41;4983820;28;20203;-68
2022/09/25 09:37:58;;;;;;;9.40;7.23;;;;;;;13.11;100.00;100408.09;4984837;28;20210;-69
2022/09/25 09:40:36;;;;;;;11.23;8.70;;;;;;;13.21;100.00;100406.81;4984766;28;20205;-69
2022/09/25 09:43:11;;;;;;;10.07;8.47;;;;;;;13.31;100.00;100413.38;4984824;28;20758;-68
2022/09/25 09:45:46;;;;;;;10.07;8.07;;;;;;;13.39;100.00;100418.31;4985906;28;20280;-71
2022/09/25 09:48:18;;;;;;;10.97;8.30;;;;;;;13.50;100.00;100412.63;4984377;28;20214;-68
2022/09/25 09:51:00;;;;;;;10.47;8.23;;;;;;;13.61;100.00;100413.91;4984138;28;20231;-71
2022/09/25 09:53:32;;;;;;;10.20;7.90;;;;;;;13.76;100.00;100403.69;4986760;28;20200;-69
2022/09/25 09:56:03;;;;;;;11.33;8.37;;;;;;;13.82;100.00;100401.66;4986537;28;20299;-70
2022/09/25 09:58:39;;;;;;;11.83;8.23;;;;;;;13.90;100.00;100405.72;4985606;28;20203;-68
2022/09/25 10:01:08;;;;;;;10.20;7.80;;;;;;;14.01;100.00;100396.44;4987460;28;20683;-68
2022/09/25 10:03:37;;;;;;;9.70;7.90;;;;;;;14.11;100.00;100391.66;4984714;28;20213;-69
2022/09/25 10:06:08;;;;;;;11.17;8.13;;;;;;;14.17;100.00;100391.38;4985400;28;20210;-68
2022/09/25 10:08:35;;;;;;;11.30;8.70;;;;;;;14.24;100.00;100388.47;4982498;28;20209;-68
2022/09/25 10:11:09;;;;;;;11.30;8.33;;;;;;;14.38;100.00;100388.69;4983757;28;20257;-69
2022/09/25 10:13:38;;;;;;;10.37;8.20;;;;;;;14.55;100.00;100387.94;4984637;28;20217;-69
2022/09/25 10:16:10;;;;;;;9.60;8.23;;;;;;;14.65;100.00;100393.63;4984322;28;20212;-68
2022/09/25 10:18:42;;;;;;;11.00;8.03;;;;;;;14.78;100.00;100394.75;4984985;28;20213;-69
2022/09/25 10:21:13;;;;;;;9.77;7.90;;;;;;;14.89;100.00;100386.38;4983518;28;20224;-69
2022/09/25 10:23:41;;;;;;;11.33;8.27;;;;;;;14.88;100.00;100382.91;4985730;28;20196;-68
2022/09/25 10:26:30;;;;;;;10.93;8.47;;;;;;;15.04;100.00;100383.00;4980397;28;20636;-69
2022/09/25 10:28:58;;;;;;;12.90;8.40;;;;;;;15.10;100.00;100385.31;4980175;28;20587;-69
2022/09/25 10:31:30;;;;;;;10.60;8.67;;;;;;;15.21;100.00;100384.78;4985802;28;20236;-69
2022/09/25 10:34:02;;;;;;;10.00;8.10;;;;;;;15.29;100.00;100389.69;4984850;28;21602;-69
2022/09/25 10:36:40;;;;;;;12.93;8.67;;;;;;;15.36;100.00;100382.38;4985158;28;20201;-69
2022/09/25 10:39:28;;;;;;;11.17;8.20;;;;;;;15.33;100.00;100384.19;4987094;28;20709;-69
2022/09/25 10:41:57;;;;;;;10.10;7.97;;;;;;;15.43;100.00;100386.38;4986713;28;20275;-70
2022/09/25 10:44:32;;;;;;;8.87;7.23;;;;;;;15.53;100.00;100387.59;4985290;28;20240;-68
2022/09/25 10:50:16;;;;;;;10.20;8.23;;;;;;;15.50;100.00;100385.97;4985166;28;20205;-71
2022/09/25 10:52:49;;;;;;;9.73;8.33;;;;;;;15.52;100.00;100385.91;4985188;28;20244;-70
2022/09/25 10:55:24;;;;;;;10.87;7.87;;;;;;;15.65;100.00;100384.34;4983574;28;20284;-70
2022/09/25 10:57:57;;;;;;;10.33;8.13;;;;;;;15.68;100.00;100386.81;4981432;28;20284;-68
2022/09/25 11:00:25;;;;;;;9.40;8.17;;;;;;;15.70;100.00;100379.69;4985858;28;20561;-69
2022/09/25 11:02:56;;;;;;;9.43;7.10;;;;;;;15.74;100.00;100379.56;4985706;28;20620;-70
2022/09/25 11:05:28;;;;;;;11.57;7.97;;;;;;;15.78;100.00;100368.84;4985991;28;20227;-68
2022/09/25 11:07:58;;;;;;;10.77;8.53;;;;;;;15.82;100.00;100354.59;4986575;28;20198;-68
2022/09/25 11:10:27;;;;;;;9.20;8.03;;;;;;;15.87;100.00;100357.00;4986740;28;20673;-68
2022/09/25 11:12:55;;;;;;;9.50;7.97;;;;;;;15.87;100.00;100364.88;4982194;28;20728;-70
2022/09/25 11:15:26;;;;;;;10.00;7.23;;;;;;;15.96;100.00;100358.31;4983734;28;20662;-68
2022/09/25 11:17:55;;;;;;;9.27;7.50;;;;;;;16.08;100.00;100358.50;4986773;28;20200;-69
2022/09/25 11:20:28;;;;;;;9.20;6.93;;;;;;;16.05;100.00;100360.44;4982730;28;20216;-68
2022/09/25 11:23:26;;;;;;;8.87;7.40;;;;;;;16.11;100.00;100348.72;4985365;28;20208;-69
2022/09/25 11:25:59;;;;;;;8.47;7.20;;;;;;;16.21;100.00;100352.56;4984917;28;20208;-68
2022/09/25 11:28:33;;;;;;;8.77;6.83;;;;;;;16.40;100.00;100349.78;4984422;28;20209;-69
2022/09/25 11:31:05;;;;;;;8.83;7.53;;;;;;;16.45;100.00;100339.88;4984691;28;20232;-68
2022/09/25 11:33:41;;;;;;;7.90;6.90;;;;;;;16.46;100.00;100339.78;4983029;28;20197;-68
2022/09/25 11:36:13;;;;;;;7.47;6.10;;;;;;;16.50;100.00;100342.22;4983968;28;20204;-69
2022/09/25 11:41:39;;;;;;;7.07;5.07;;;;;;;16.51;100.00;100338.69;4985354;28;20217;-69
2022/09/25 11:44:17;;;;;;;7.47;5.90;;;;;;;16.56;100.00;100332.22;4984768;28;20204;-69
2022/09/25 11:46:51;;;;;;;6.90;6.00;;;;;;;16.65;100.00;100330.84;4986219;28;20267;-69
2022/09/25 11:49:23;;;;;;;8.03;5.90;;;;;;;16.70;100.00;100326.19;4984039;28;20316;-68
2022/09/25 11:52:19;;;;;;;8.37;6.40;;;;;;;16.74;100.00;100329.50;4982531;28;20792;-69